Time;durP1;ratioP1;P1;durP2;ratioP2;P2;SDS_P1;SDS_P2;PMS_P1;PMS_P2;Temp;Humidity;BMP_temperature;BMP_pressure;BME280_temperature;BME280_humidity;BME280_pressure;Samples;Min_cycle;Max_cycle;Signal;HPM_P1;HPM_P2
2022/10/18 00:00:31;;;;;;;10.50;7.55;;;;;;;12.99;100.00;101280.25;4947164;29;20038;-86
2022/10/18 00:02:56;;;;;;;15.27;7.20;;;;;;;13.07;100.00;101297.91;4944455;29;20082;-86
2022/10/18 00:05:21;;;;;;;11.73;7.00;;;;;;;13.19;100.00;101299.75;4923485;29;20122;-86
2022/10/18 00:07:49;;;;;;;8.85;7.10;;;;;;;13.02;100.00;101264.13;4941831;29;20118;-86
2022/10/18 00:10:15;;;;;;;13.80;7.20;;;;;;;13.22;100.00;101292.25;4941357;29;20024;-87
2022/10/18 00:12:41;;;;;;;13.45;7.05;;;;;;;13.23;100.00;101290.97;4947194;29;20078;-89
2022/10/18 00:15:12;;;;;;;12.77;7.82;;;;;;;13.28;100.00;101290.28;4939858;29;20028;-88
2022/10/18 00:17:38;;;;;;;13.50;7.40;;;;;;;13.29;100.00;101295.56;4939780;29;20019;-89
2022/10/18 00:20:05;;;;;;;11.52;7.88;;;;;;;13.33;100.00;101292.50;4940878;29;20091;-89
2022/10/18 00:22:30;;;;;;;14.00;7.28;;;;;;;13.25;100.00;101279.78;4922696;29;20023;-85
2022/10/18 00:25:00;;;;;;;12.93;8.20;;;;;;;13.35;100.00;101295.66;4939272;29;20577;-90
2022/10/18 00:27:40;;;;;;;14.27;7.25;;;;;;;13.38;100.00;101294.69;4938399;29;20027;-90
2022/10/18 00:30:13;;;;;;;10.38;6.75;;;;;;;13.28;100.00;101282.47;4942966;29;20032;-88
2022/10/18 00:32:42;;;;;;;13.25;7.95;;;;;;;13.24;100.00;101273.25;4943985;29;20040;-89
2022/10/18 00:35:10;;;;;;;14.30;7.07;;;;;;;13.27;100.00;101280.09;4943388;29;20042;-88
2022/10/18 00:37:39;;;;;;;9.68;7.50;;;;;;;13.34;100.00;101291.97;4939945;29;20031;-88
2022/10/18 00:40:05;;;;;;;11.95;8.00;;;;;;;13.33;100.00;101293.28;4923447;29;20035;-87
2022/10/18 00:42:33;;;;;;;9.75;6.53;;;;;;;13.24;100.00;101281.88;4922894;29;20035;-88
2022/10/18 00:45:00;;;;;;;10.55;6.43;;;;;;;13.26;100.00;101273.53;4922688;29;20027;-87
2022/10/18 00:47:25;;;;;;;9.95;7.25;;;;;;;13.32;100.00;101282.28;4939970;29;20166;-88
2022/10/18 00:49:53;;;;;;;8.85;6.72;;;;;;;13.29;100.00;101280.41;4922957;29;20521;-88
2022/10/18 00:52:26;;;;;;;10.18;6.95;;;;;;;13.30;100.00;101288.50;4938191;29;20028;-88
2022/10/18 00:54:52;;;;;;;9.75;5.90;;;;;;;13.27;100.00;101274.34;4939123;29;20496;-88
2022/10/18 00:57:20;;;;;;;13.25;7.07;;;;;;;13.22;100.00;101277.88;4938495;29;20032;-87
2022/10/18 00:59:45;;;;;;;13.98;6.75;;;;;;;13.23;100.00;101271.66;4938579;29;20088;-87
2022/10/18 01:02:13;;;;;;;11.18;7.30;;;;;;;13.21;100.00;101273.41;4939786;29;20465;-85
2022/10/18 01:04:39;;;;;;;9.90;6.85;;;;;;;13.20;100.00;101278.38;4962130;28;20020;-87
2022/10/18 01:07:17;;;;;;;14.73;7.45;;;;;;;13.20;100.00;101266.09;4946654;28;20087;-88
2022/10/18 01:09:48;;;;;;;8.80;6.10;;;;;;;13.17;100.00;101270.75;4962661;28;20027;-89
2022/10/18 01:12:19;;;;;;;15.52;7.05;;;;;;;13.18;100.00;101271.53;4962131;28;20026;-89
2022/10/18 01:14:50;;;;;;;10.90;7.35;;;;;;;13.17;100.00;101278.56;4942368;29;20035;-87
2022/10/18 01:17:29;;;;;;;12.07;7.35;;;;;;;13.10;100.00;101265.34;4941780;29;20032;-88
2022/10/18 01:20:00;;;;;;;12.50;7.25;;;;;;;13.17;100.00;101269.94;4940522;29;20465;-88
2022/10/18 01:22:47;;;;;;;9.07;7.28;;;;;;;12.83;100.00;101225.34;4940846;29;20118;-89
2022/10/18 01:25:35;;;;;;;18.70;7.13;;;;;;;13.12;100.00;101266.47;4941467;29;20030;-86
2022/10/18 01:28:17;;;;;;;8.95;6.30;;;;;;;13.06;100.00;101262.66;4922093;29;20042;-86
2022/10/18 01:30:59;;;;;;;;;;;;;;;13.04;100.00;101268.13;4922515;29;20031;-89
2022/10/18 01:33:50;;;;;;;11.45;6.75;;;;;;;12.99;100.00;101271.66;4938244;29;20311;-87
2022/10/18 01:36:22;;;;;;;10.60;6.80;;;;;;;12.95;100.00;101262.41;4939987;29;20465;-87
2022/10/18 01:38:51;;;;;;;8.15;7.28;;;;;;;12.79;100.00;101227.59;4940447;29;20031;-88
2022/10/18 01:41:19;;;;;;;12.90;7.03;;;;;;;12.90;100.00;101242.22;4926042;29;20046;-89
2022/10/18 01:43:47;;;;;;;13.40;6.95;;;;;;;12.89;100.00;101243.50;4939792;29;20035;-87
2022/10/18 01:46:18;;;;;;;10.60;6.70;;;;;;;12.78;100.00;101226.81;4922228;29;20052;-87
2022/10/18 01:48:45;;;;;;;10.90;7.05;;;;;;;12.84;100.00;101233.47;4922839;29;20027;-89
2022/10/18 01:51:10;;;;;;;12.55;6.78;;;;;;;12.82;100.00;101229.50;4928979;29;20122;-88
2022/10/18 01:53:36;;;;;;;11.23;6.75;;;;;;;12.83;100.00;101231.09;4937361;29;20063;-85
2022/10/18 01:56:15;;;;;;;9.90;6.70;;;;;;;12.74;100.00;101211.06;4920876;29;20376;-87
2022/10/18 01:58:51;;;;;;;9.05;6.55;;;;;;;12.91;100.00;101238.84;4936527;29;20032;-88
2022/10/18 02:01:43;;;;;;;15.13;6.70;;;;;;;12.78;100.00;101228.88;4922983;29;20389;-88
2022/10/18 02:04:22;;;;;;;11.25;7.43;;;;;;;12.74;100.00;101237.66;4944406;29;20031;-87
2022/10/18 02:06:51;;;;;;;9.35;7.18;;;;;;;12.88;100.00;101247.63;4933452;29;20122;-87
2022/10/18 02:09:31;;;;;;;10.13;7.07;;;;;;;12.80;100.00;101237.81;4944489;29;20039;-86
2022/10/18 02:11:57;;;;;;;12.55;7.15;;;;;;;12.65;100.00;101235.63;4927558;29;20034;-88
2022/10/18 02:14:24;;;;;;;10.52;7.53;;;;;;;12.58;100.00;101235.19;4935586;29;20028;-87
2022/10/18 02:16:54;;;;;;;11.20;7.43;;;;;;;12.71;100.00;101252.97;4948570;29;20067;-88
2022/10/18 02:19:27;;;;;;;10.57;7.57;;;;;;;12.64;100.00;101259.88;4944690;29;20039;-88
2022/10/18 02:21:54;;;;;;;13.73;8.02;;;;;;;12.52;100.00;101243.66;4939959;29;20027;-87
2022/10/18 02:24:20;;;;;;;11.20;7.38;;;;;;;12.36;100.00;101226.00;4938282;29;20385;-88
2022/10/18 02:26:46;;;;;;;14.55;7.85;;;;;;;12.41;100.00;101248.28;4925515;29;20031;-88
2022/10/18 02:29:11;;;;;;;10.80;7.93;;;;;;;12.32;100.00;101243.38;4942577;29;20124;-87
2022/10/18 02:31:47;;;;;;;13.50;8.75;;;;;;;12.30;100.00;101251.66;4925512;29;20385;-86
2022/10/18 02:34:21;;;;;;;11.15;8.30;;;;;;;12.27;100.00;101246.88;4940658;29;20165;-87
2022/10/18 02:37:04;;;;;;;11.38;8.73;;;;;;;12.28;100.00;101265.66;4939834;29;20032;-91
2022/10/18 02:39:33;;;;;;;17.40;7.88;;;;;;;12.23;100.00;101260.59;4924725;29;20358;-87
2022/10/18 02:42:05;;;;;;;16.25;8.70;;;;;;;11.99;100.00;101234.69;4937717;29;20086;-87
2022/10/18 02:44:31;;;;;;;17.13;8.30;;;;;;;12.06;100.00;101236.44;4938771;29;20035;-88
2022/10/18 02:46:58;;;;;;;13.25;8.40;;;;;;;12.12;100.00;101258.22;4921437;29;20047;-88
2022/10/18 02:49:24;;;;;;;14.00;8.18;;;;;;;11.69;100.00;101193.53;4922973;29;20114;-87
2022/10/18 02:51:49;;;;;;;15.60;8.93;;;;;;;12.07;100.00;101255.19;4939165;29;20047;-88
2022/10/18 02:54:15;;;;;;;11.43;9.07;;;;;;;12.09;100.00;101261.25;4937999;29;20031;-89
2022/10/18 02:56:40;;;;;;;12.10;8.88;;;;;;;11.85;100.00;101229.63;4937420;29;20031;-87
2022/10/18 02:59:10;;;;;;;14.43;9.25;;;;;;;12.00;100.00;101258.41;4922067;29;20046;-88
2022/10/18 03:01:44;;;;;;;17.73;8.73;;;;;;;11.97;100.00;101262.22;4937616;29;20027;-87
2022/10/18 03:04:10;;;;;;;14.32;8.32;;;;;;;11.89;100.00;101258.91;4936909;29;20083;-88
2022/10/18 03:06:42;;;;;;;20.58;10.05;;;;;;;11.80;100.00;101259.72;4921444;29;20106;-86
2022/10/18 03:09:10;;;;;;;22.05;9.57;;;;;;;11.84;100.00;101271.00;4938146;29;20027;-88
2022/10/18 03:11:40;;;;;;;17.30;9.40;;;;;;;11.79;100.00;101280.22;4904375;29;20124;-87
2022/10/18 03:14:06;;;;;;;12.32;8.57;;;;;;;11.74;100.00;101275.13;4920443;29;20042;-87
2022/10/18 03:16:32;;;;;;;14.60;9.55;;;;;;;11.63;100.00;101269.09;4920187;29;20035;-87
2022/10/18 03:19:02;;;;;;;15.93;8.73;;;;;;;11.62;100.00;101265.41;4936618;29;20024;-88
2022/10/18 03:21:30;;;;;;;11.88;8.27;;;;;;;11.63;100.00;101287.06;4919008;29;20061;-86
2022/10/18 03:23:58;;;;;;;14.95;8.77;;;;;;;11.40;100.00;101254.13;4921266;29;20027;-88
2022/10/18 03:26:24;;;;;;;16.17;9.88;;;;;;;11.58;100.00;101281.97;4920767;29;20032;-86
2022/10/18 03:28:51;;;;;;;20.98;9.50;;;;;;;11.35;100.00;101248.25;4938675;29;20104;-89
2022/10/18 03:31:19;;;;;;;16.13;9.40;;;;;;;11.44;100.00;101273.22;4942137;29;20070;-88
2022/10/18 03:33:45;;;;;;;15.63;9.57;;;;;;;11.51;100.00;101287.22;4922757;29;20035;-88
2022/10/18 03:36:13;;;;;;;16.52;9.05;;;;;;;11.37;100.00;101274.31;4945447;29;20356;-89
2022/10/18 03:38:41;;;;;;;18.23;9.25;;;;;;;11.48;100.00;101291.00;4935191;29;20055;-86
2022/10/18 03:41:15;;;;;;;16.95;9.02;;;;;;;11.23;100.00;101260.63;4927830;29;20027;-88
2022/10/18 03:43:43;;;;;;;13.27;9.00;;;;;;;11.15;100.00;101253.63;4928832;29;20470;-87
2022/10/18 03:46:11;;;;;;;14.23;9.65;;;;;;;11.34;100.00;101284.66;4949244;29;20051;-86
2022/10/18 03:48:39;;;;;;;12.90;9.70;;;;;;;11.29;100.00;101281.63;4953780;29;20035;-90
2022/10/18 03:51:04;;;;;;;17.98;10.43;;;;;;;11.30;100.00;101284.00;4937700;29;20027;-89
2022/10/18 03:53:32;;;;;;;17.88;9.15;;;;;;;11.29;100.00;101293.84;4945984;29;20487;-88
2022/10/18 03:56:02;;;;;;;17.38;9.43;;;;;;;11.26;100.00;101296.88;4943857;29;20035;-88
2022/10/18 03:58:34;;;;;;;14.60;9.00;;;;;;;11.10;100.00;101285.69;4926393;29;20118;-88
2022/10/18 04:01:01;;;;;;;13.70;9.70;;;;;;;11.22;100.00;101304.81;4942895;29;20458;-88
2022/10/18 04:03:34;;;;;;;17.13;9.82;;;;;;;10.86;100.00;101251.13;4942677;29;20059;-88
2022/10/18 04:06:02;;;;;;;22.75;12.32;;;;;;;10.86;100.00;101256.84;4949486;29;20042;-87
2022/10/18 04:08:31;;;;;;;23.85;11.05;;;;;;;11.07;100.00;101295.22;4934379;29;20032;-86
2022/10/18 04:10:58;;;;;;;25.27;11.88;;;;;;;11.07;100.00;101309.50;4945145;29;20036;-87
2022/10/18 04:13:23;;;;;;;21.40;11.30;;;;;;;10.99;100.00;101297.56;4931304;29;20030;-87
2022/10/18 04:15:51;;;;;;;23.67;12.45;;;;;;;10.87;100.00;101287.84;4950412;29;20035;-86
2022/10/18 04:18:18;;;;;;;21.77;11.02;;;;;;;10.92;100.00;101304.38;4937893;29;20020;-88
2022/10/18 04:20:45;;;;;;;19.80;12.52;;;;;;;10.90;100.00;101292.59;4950863;29;20059;-88
2022/10/18 04:23:23;;;;;;;20.05;12.30;;;;;;;10.97;100.00;101311.56;4947253;29;20063;-88
2022/10/18 04:25:51;;;;;;;21.52;11.77;;;;;;;10.64;100.00;101259.78;4948051;29;20031;-88
2022/10/18 04:28:24;;;;;;;18.10;10.82;;;;;;;10.85;100.00;101292.44;4940923;29;20063;-88
2022/10/18 04:30:52;;;;;;;17.23;11.02;;;;;;;10.52;100.00;101246.41;4941117;29;20480;-87
2022/10/18 04:33:22;;;;;;;18.10;11.27;;;;;;;10.77;100.00;101300.50;4939606;29;20046;-87
2022/10/18 04:35:52;;;;;;;20.42;12.27;;;;;;;10.29;100.00;101230.56;4940315;29;20029;-89
2022/10/18 04:38:21;;;;;;;22.55;12.30;;;;;;;10.17;100.00;101217.19;4955667;29;20488;-89
2022/10/18 04:40:50;;;;;;;18.10;11.07;;;;;;;10.24;100.00;101231.16;4945304;29;20474;-87
2022/10/18 04:43:31;;;;;;;17.83;11.00;;;;;;;10.52;100.00;101277.84;4944179;29;20440;-87
2022/10/18 04:46:02;;;;;;;37.92;12.60;;;;;;;10.34;100.00;101249.16;4948815;29;20449;-87
2022/10/18 04:48:43;;;;;;;23.30;12.45;;;;;;;10.67;100.00;101304.59;4954377;29;20035;-88
2022/10/18 04:51:12;;;;;;;22.58;12.60;;;;;;;10.15;100.00;101216.03;4961059;28;20031;-86
2022/10/18 04:53:42;;;;;;;20.98;11.40;;;;;;;10.67;100.00;101304.59;4959092;28;20090;-84
2022/10/18 04:56:12;;;;;;;23.38;12.50;;;;;;;10.57;100.00;101297.25;4957127;29;20031;-81
2022/10/18 04:58:42;;;;;;;18.63;10.93;;;;;;;10.65;100.00;101314.88;4957305;29;20162;-83
2022/10/18 05:01:12;;;;;;;23.13;11.40;;;;;;;10.53;100.00;101283.06;4957998;28;20042;-79
2022/10/18 05:03:38;;;;;;;17.80;11.13;;;;;;;10.68;100.00;101302.53;4940588;29;20495;-82
2022/10/18 05:06:05;;;;;;;20.63;11.38;;;;;;;10.68;100.00;101299.66;4956175;29;20536;-82
2022/10/18 05:08:43;;;;;;;19.17;12.20;;;;;;;10.65;100.00;101297.75;4924697;29;20043;-81
2022/10/18 05:11:12;;;;;;;18.83;10.80;;;;;;;10.70;100.00;101299.97;4957792;28;20023;-81
2022/10/18 05:13:40;;;;;;;17.63;11.52;;;;;;;10.72;100.00;101303.19;4940219;29;20125;-83
2022/10/18 05:16:08;;;;;;;23.50;11.07;;;;;;;10.65;100.00;101287.09;4940791;29;20068;-85
2022/10/18 05:18:41;;;;;;;22.48;10.43;;;;;;;10.66;100.00;101279.31;4958573;28;20038;-80
2022/10/18 05:21:08;;;;;;;32.22;11.65;;;;;;;10.78;100.00;101296.34;4958876;28;20086;-83
2022/10/18 05:23:34;;;;;;;16.95;10.18;;;;;;;10.74;100.00;101292.06;4940899;29;20039;-84
2022/10/18 05:26:05;;;;;;;21.38;11.50;;;;;;;10.80;100.00;101304.47;4958817;28;20491;-84
2022/10/18 05:28:32;;;;;;;21.88;11.82;;;;;;;10.60;100.00;101272.63;4941575;29;20082;-89
2022/10/18 05:31:03;;;;;;;28.98;12.30;;;;;;;10.79;100.00;101292.25;4944388;29;20063;-86
2022/10/18 05:33:31;;;;;;;20.90;12.10;;;;;;;10.85;100.00;101295.28;4942196;29;20062;-85
2022/10/18 05:36:00;;;;;;;18.35;11.60;;;;;;;10.95;100.00;101299.78;4941674;29;20034;-82
2022/10/18 05:38:33;;;;;;;57.20;13.90;;;;;;;11.02;100.00;101307.28;4941684;29;20063;-87
2022/10/18 05:41:02;;;;;;;39.53;13.80;;;;;;;11.11;100.00;101299.53;4942232;29;20081;-86
2022/10/18 05:43:32;;;;;;;36.67;13.93;;;;;;;11.20;100.00;101311.00;4925003;29;20388;-85
2022/10/18 05:46:04;;;;;;;39.33;13.35;;;;;;;11.17;100.00;101288.28;4939561;29;20040;-85
2022/10/18 05:48:33;;;;;;;31.83;12.85;;;;;;;11.19;100.00;101283.66;4956136;29;20498;-83
2022/10/18 05:51:00;;;;;;;33.33;13.45;;;;;;;11.40;100.00;101294.19;4964919;28;20035;-86
2022/10/18 05:53:31;;;;;;;28.30;12.10;;;;;;;11.53;100.00;101314.09;4924861;29;20079;-84
2022/10/18 05:56:04;;;;;;;21.27;11.37;;;;;;;11.55;100.00;101290.72;4960093;28;20465;-85
2022/10/18 05:58:32;;;;;;;36.63;12.63;;;;;;;11.74;100.00;101301.69;4940463;29;20027;-84
2022/10/18 06:01:09;;;;;;;25.92;10.45;;;;;;;11.90;100.00;101300.59;4940607;29;20039;-84
2022/10/18 06:03:36;;;;;;;27.63;12.55;;;;;;;11.95;100.00;101288.50;4954656;28;20461;-84
2022/10/18 06:06:08;;;;;;;20.83;11.60;;;;;;;12.17;100.00;101302.63;4957147;28;20043;-83
2022/10/18 06:08:34;;;;;;;30.08;10.95;;;;;;;12.28;100.00;101300.88;4956107;29;20031;-84
2022/10/18 06:11:24;;;;;;;43.35;12.93;;;;;;;12.43;100.00;101309.63;4939403;29;20036;-83
2022/10/18 06:13:51;;;;;;;28.77;12.18;;;;;;;12.57;100.00;101305.28;4945612;29;20043;-84
2022/10/18 06:16:20;;;;;;;38.95;12.02;;;;;;;12.60;100.00;101296.50;4924526;29;20058;-84
2022/10/18 06:18:51;;;;;;;40.90;14.20;;;;;;;12.73;100.00;101286.91;4938691;29;20047;-85
2022/10/18 06:21:17;;;;;;;31.80;10.75;;;;;;;13.03;100.00;101318.16;4940094;29;20404;-83
2022/10/18 06:23:55;;;;;;;23.52;11.70;;;;;;;13.19;100.00;101316.19;4939623;29;20433;-85
2022/10/18 06:26:21;;;;;;;39.40;14.15;;;;;;;13.38;100.00;101318.47;4939112;29;20488;-84
2022/10/18 06:28:49;;;;;;;30.08;11.68;;;;;;;13.48;100.00;101311.38;4938416;29;20108;-86
2022/10/18 06:31:23;;;;;;;30.13;10.52;;;;;;;13.74;100.00;101317.41;4939353;29;20035;-84
2022/10/18 06:33:50;;;;;;;21.02;9.15;;;;;;;13.67;100.00;101291.16;4954835;29;20058;-87
2022/10/18 06:36:23;;;;;;;35.15;12.07;;;;;;;14.02;100.00;101320.88;4954983;29;20043;-85
2022/10/18 06:38:51;;;;;;;50.67;13.65;;;;;;;14.19;100.00;101322.00;4954850;29;20031;-87
2022/10/18 06:41:21;;;;;;;26.75;10.40;;;;;;;14.32;100.00;101321.72;4954492;29;20050;-83
2022/10/18 06:43:52;;;;;;;22.85;10.38;;;;;;;14.39;100.00;101315.56;4938527;29;20039;-84
2022/10/18 06:46:18;;;;;;;20.07;9.80;;;;;;;14.43;100.00;101298.91;4940836;23;20152;-82
2022/10/18 06:48:47;;;;;;;23.02;9.63;;;;;;;14.67;100.00;101314.03;4916805;29;20111;-82
2022/10/18 06:51:14;;;;;;;24.20;10.02;;;;;;;14.69;100.00;101299.13;4916124;29;20113;-82
2022/10/18 06:53:41;;;;;;;18.67;9.57;;;;;;;14.88;100.00;101305.44;4917400;29;20027;-82
2022/10/18 06:56:11;;;;;;;13.57;8.50;;;;;;;15.10;100.00;101317.31;4901159;29;20451;-85
2022/10/18 06:58:40;;;;;;;16.23;9.75;;;;;;;15.24;100.00;101320.16;4916642;29;20481;-85
2022/10/18 07:01:11;;;;;;;23.50;9.70;;;;;;;15.19;100.00;101289.19;4900523;29;20036;-86
2022/10/18 07:03:36;;;;;;;146.65;23.50;;;;;;;15.44;100.00;101302.13;4917620;29;20032;-85
2022/10/18 07:06:04;;;;;;;383.92;52.25;;;;;;;15.65;100.00;101315.28;4900250;29;20034;-86
2022/10/18 07:08:30;;;;;;;69.40;15.70;;;;;;;15.73;100.00;101300.41;4922631;29;20032;-83
2022/10/18 07:10:59;;;;;;;23.15;9.90;;;;;;;16.11;100.00;101318.19;4918982;29;20492;-85
2022/10/18 07:13:32;;;;;;;40.85;11.00;;;;;;;16.36;100.00;101296.41;4935158;29;20028;-87
2022/10/18 07:16:24;;;;;;;37.90;10.93;;;;;;;16.85;100.00;101303.97;4933755;29;20043;-85
2022/10/18 07:18:51;;;;;;;44.70;11.98;;;;;;;17.13;100.00;101303.41;4920232;29;20051;-85
2022/10/18 07:21:21;;;;;;;32.95;10.43;;;;;;;17.50;100.00;101323.63;4905700;29;20036;-86
2022/10/18 07:23:55;;;;;;;34.85;11.15;;;;;;;17.53;100.00;101291.59;4902901;29;20039;-86
2022/10/18 07:26:32;;;;;;;55.63;14.95;;;;;;;18.03;100.00;101319.94;4933646;29;20052;-86
2022/10/18 07:29:05;;;;;;;51.15;13.20;;;;;;;18.42;100.00;101320.84;4902173;29;20024;-86
2022/10/18 07:31:33;;;;;;;30.58;11.15;;;;;;;18.73;96.45;101327.72;4916977;29;20477;-84
2022/10/18 07:33:59;;;;;;;68.15;13.85;;;;;;;18.87;96.80;101315.09;4917599;29;20091;-86
2022/10/18 07:36:25;;;;;;;29.00;11.40;;;;;;;19.21;97.65;101327.50;4918717;29;20024;-87
2022/10/18 07:38:55;;;;;;;29.20;10.43;;;;;;;19.48;95.43;101339.03;4916396;29;20115;-86
2022/10/18 07:41:22;;;;;;;17.20;9.20;;;;;;;19.56;93.61;101303.69;4900645;29;20032;-85
2022/10/18 07:43:52;;;;;;;19.38;9.93;;;;;;;19.87;90.41;101320.69;4917162;29;20024;-85
2022/10/18 07:46:31;;;;;;;19.35;8.40;;;;;;;20.29;88.61;101342.69;4932538;23;20066;-85
2022/10/18 07:48:58;;;;;;;19.55;8.18;;;;;;;20.60;86.76;101339.31;4936339;29;20027;-85
2022/10/18 07:51:41;;;;;;;15.52;7.97;;;;;;;20.99;81.00;101338.28;4919624;29;20548;-87
2022/10/18 07:54:21;;;;;;;18.17;9.15;;;;;;;21.20;78.35;101351.03;4919011;29;20024;-87
2022/10/18 07:56:49;;;;;;;18.08;9.32;;;;;;;21.13;77.86;101340.78;4903895;29;20107;-87
2022/10/18 07:59:17;;;;;;;23.83;9.52;;;;;;;21.18;75.04;101356.59;4904130;29;20020;-86
2022/10/18 08:01:43;;;;;;;12.93;9.00;;;;;;;21.25;77.32;101342.25;4903684;29;20031;-85
2022/10/18 08:04:12;;;;;;;18.75;10.15;;;;;;;21.36;76.80;101335.53;4936468;29;20066;-86
2022/10/18 08:06:42;;;;;;;15.75;9.57;;;;;;;21.63;75.31;101348.25;4935804;29;20031;-85
2022/10/18 08:09:10;;;;;;;17.88;10.00;;;;;;;21.45;75.17;101316.97;4918345;29;20078;-84
2022/10/18 08:11:43;;;;;;;21.42;9.38;;;;;;;21.83;74.50;101338.25;4919068;29;20625;-86
2022/10/18 08:14:12;;;;;;;28.48;10.13;;;;;;;21.99;72.80;101326.38;4903320;29;20067;-85
2022/10/18 08:16:41;;;;;;;15.55;8.27;;;;;;;22.31;71.34;101346.91;4919453;29;20020;-86
2022/10/18 08:19:12;;;;;;;15.60;8.60;;;;;;;22.30;69.39;101327.84;4935907;29;20103;-84
2022/10/18 08:21:42;;;;;;;17.80;8.85;;;;;;;22.46;68.04;101331.84;4903371;29;20086;-86
2022/10/18 08:24:32;;;;;;;17.33;9.30;;;;;;;22.56;67.93;101338.84;4921405;29;20027;-84
2022/10/18 08:27:02;;;;;;;13.77;8.77;;;;;;;22.52;68.66;101306.31;4937519;29;20087;-85
2022/10/18 08:29:42;;;;;;;16.38;8.90;;;;;;;22.32;67.10;101266.13;4922317;29;20023;-84
2022/10/18 08:32:12;;;;;;;11.80;8.73;;;;;;;22.68;67.12;101302.34;4922703;29;20032;-86
2022/10/18 08:34:44;;;;;;;16.08;9.18;;;;;;;22.76;66.99;101299.59;4907370;29;20028;-83
2022/10/18 08:37:12;;;;;;;17.55;8.50;;;;;;;22.97;65.47;101318.06;4923418;29;20031;-84
2022/10/18 08:39:40;;;;;;;16.05;8.98;;;;;;;22.73;65.24;101298.56;4922318;29;20027;-83
2022/10/18 08:42:44;;;;;;;17.85;8.65;;;;;;;22.80;65.70;101320.47;4922117;29;20083;-85
2022/10/18 08:45:11;;;;;;;19.52;8.50;;;;;;;22.67;66.46;101286.19;4930253;23;20023;-83
2022/10/18 08:47:40;;;;;;;25.48;10.15;;;;;;;22.69;66.67;101285.66;4977344;28;20476;-83
2022/10/18 08:50:17;;;;;;;26.20;9.20;;;;;;;22.63;64.87;101309.06;4928131;28;20109;-85
2022/10/18 08:53:19;;;;;;;24.33;10.25;;;;;;;22.55;66.34;101308.13;4961241;28;20046;-87
2022/10/18 08:55:51;;;;;;;;;;;;;;;22.40;67.42;101299.09;4962483;28;20071;-88
2022/10/18 08:58:23;;;;;;;15.40;8.05;;;;;;;22.30;68.32;101289.97;4968418;28;20056;-87
2022/10/18 09:01:23;;;;;;;22.52;9.25;;;;;;;22.34;68.38;101289.66;4978110;28;20368;-88
2022/10/18 09:04:14;;;;;;;21.15;8.77;;;;;;;22.32;68.34;101292.34;4964122;28;20117;-85
2022/10/18 09:07:25;;;;;;;15.95;8.27;;;;;;;22.30;67.28;101280.44;4944813;28;20487;-85
2022/10/18 09:10:14;;;;;;;23.30;10.18;;;;;;;22.18;68.33;101282.72;4977477;28;20111;-87
2022/10/18 09:13:05;;;;;;;61.30;15.18;;;;;;;22.27;68.99;101278.66;4977489;28;20026;-84
2022/10/18 09:15:38;;;;;;;48.70;12.27;;;;;;;22.36;69.66;101281.94;4958762;28;20121;-82
2022/10/18 09:18:24;;;;;;;35.95;10.57;;;;;;;22.37;67.96;101274.75;4942001;28;20042;-81
2022/10/18 09:20:57;;;;;;;20.20;10.00;;;;;;;22.24;67.90;101262.25;4974994;28;20038;-82
2022/10/18 09:23:34;;;;;;;15.68;8.55;;;;;;;22.36;69.01;101267.38;4957764;28;20039;-82
2022/10/18 09:26:26;;;;;;;16.35;8.15;;;;;;;22.36;68.77;101246.19;4975065;28;20033;-83
2022/10/18 09:29:04;;;;;;;12.60;7.72;;;;;;;22.62;69.34;101251.34;4974418;28;20033;-82
2022/10/18 09:31:53;;;;;;;22.27;8.93;;;;;;;22.91;68.69;101248.19;4974338;28;20476;-82
2022/10/18 09:34:30;;;;;;;39.35;12.40;;;;;;;23.18;66.71;101234.44;4978985;28;20043;-83
2022/10/18 09:36:56;;;;;;;16.52;8.45;;;;;;;23.33;67.17;101220.09;4959228;28;20077;-83
2022/10/18 09:39:24;;;;;;;18.45;9.63;;;;;;;23.42;65.00;101239.25;4960180;28;20031;-83
2022/10/18 09:41:52;;;;;;;12.30;7.38;;;;;;;23.39;64.93;101228.72;4960141;28;20030;-83
2022/10/18 09:44:22;;;;;;;20.88;9.07;;;;;;;23.43;65.29;101226.25;4976671;28;20483;-83
2022/10/18 09:47:03;;;;;;;16.23;8.05;;;;;;;23.52;65.31;101219.97;4958737;28;20500;-84
2022/10/18 09:49:36;;;;;;;13.88;7.85;;;;;;;23.60;65.20;101217.19;4959260;28;20065;-83
2022/10/18 09:52:07;;;;;;;18.48;9.52;;;;;;;23.58;66.24;101211.13;4959369;28;20028;-83
2022/10/18 09:54:52;;;;;;;210.45;35.17;;;;;;;23.46;65.66;101219.28;4958998;28;20488;-83
2022/10/18 09:57:25;;;;;;;42.80;12.35;;;;;;;23.46;65.12;101213.44;4976067;28;20023;-84
2022/10/18 09:59:51;;;;;;;43.00;11.77;;;;;;;23.50;66.14;101216.03;4959214;28;20436;-83
2022/10/18 10:02:21;;;;;;;46.63;11.77;;;;;;;23.58;66.96;101205.28;4976333;28;20460;-83
2022/10/18 10:04:47;;;;;;;43.05;11.88;;;;;;;23.63;66.34;101196.41;4942808;28;20019;-83
2022/10/18 10:07:18;;;;;;;22.50;9.13;;;;;;;23.74;65.64;101202.00;4975974;28;20077;-83
2022/10/18 10:09:45;;;;;;;;;;;;;;;23.66;64.81;101206.94;4943406;28;20084;-84
2022/10/18 10:12:27;;;;;;;17.60;8.55;;;;;;;23.71;68.31;101190.66;4959364;28;19917;-83
2022/10/18 10:14:52;;;;;;;60.70;13.52;;;;;;;23.82;65.72;101186.69;4942437;28;20024;-83
2022/10/18 10:17:25;;;;;;;15.00;8.80;;;;;;;23.92;62.21;101187.78;4958514;28;20029;-83
2022/10/18 10:20:02;;;;;;;15.48;9.23;;;;;;;23.89;62.98;101174.34;4958472;28;20031;-83
2022/10/18 10:22:38;;;;;;;36.58;10.52;;;;;;;23.84;63.25;101166.50;4959128;28;20022;-83
2022/10/18 10:25:05;;;;;;;18.48;10.05;;;;;;;23.78;64.67;101163.69;4943186;28;20121;-83
2022/10/18 10:27:42;;;;;;;21.17;8.88;;;;;;;23.78;65.75;101161.56;4976325;28;20023;-83
2022/10/18 10:30:30;;;;;;;22.95;9.48;;;;;;;23.76;65.39;101161.34;4958634;28;20022;-83
2022/10/18 10:32:56;;;;;;;36.35;12.27;;;;;;;23.65;66.88;101152.84;4958611;28;20034;-83
2022/10/18 10:35:42;;;;;;;24.42;10.70;;;;;;;23.54;66.21;101156.00;4958457;28;20380;-83
2022/10/18 10:38:22;;;;;;;30.50;10.43;;;;;;;23.34;66.89;101145.81;4957825;28;20043;-83
2022/10/18 10:40:50;;;;;;;19.73;9.75;;;;;;;23.34;66.68;101151.66;4975357;28;20097;-84
2022/10/18 10:43:25;;;;;;;37.85;11.75;;;;;;;23.18;68.16;101155.69;4958462;28;20026;-83
2022/10/18 10:46:22;;;;;;;34.85;11.05;;;;;;;22.86;70.74;101138.28;4957742;28;20130;-84
2022/10/18 10:48:47;;;;;;;21.30;10.07;;;;;;;22.87;70.27;101150.75;4946519;28;20041;-85
2022/10/18 10:51:13;;;;;;;39.10;12.68;;;;;;;22.85;70.50;101139.63;4975012;28;20031;-83
2022/10/18 10:53:40;;;;;;;34.85;10.95;;;;;;;22.80;71.05;101131.00;4941971;28;20081;-84
2022/10/18 10:56:16;;;;;;;36.15;11.38;;;;;;;22.88;70.63;101129.78;4958296;28;20030;-84
2022/10/18 10:58:41;;;;;;;21.67;9.48;;;;;;;22.89;72.12;101127.66;4975337;28;20491;-83
2022/10/18 11:01:19;;;;;;;24.88;10.35;;;;;;;22.88;70.02;101126.88;4975505;28;20127;-83
2022/10/18 11:03:47;;;;;;;18.23;9.73;;;;;;;22.84;70.94;101131.44;4958331;28;20455;-84
2022/10/18 11:06:28;;;;;;;16.00;9.45;;;;;;;22.77;71.16;101118.31;4975550;28;20082;-84
2022/10/18 11:08:56;;;;;;;16.17;9.85;;;;;;;22.69;72.09;101120.34;4975359;28;20105;-83
2022/10/18 11:11:26;;;;;;;54.65;14.98;;;;;;;22.63;73.41;101116.72;4958200;28;20035;-84
2022/10/18 11:14:01;;;;;;;130.40;27.17;;;;;;;22.56;72.05;101116.63;4958557;28;20078;-85
2022/10/18 11:16:37;;;;;;;42.13;12.60;;;;;;;22.53;71.75;101115.59;4975796;28;20030;-83
2022/10/18 11:19:26;;;;;;;24.73;12.82;;;;;;;22.46;75.65;101102.50;4958939;28;20027;-84
2022/10/18 11:21:51;;;;;;;26.23;10.15;;;;;;;22.44;75.10;101092.72;4942407;28;20030;-85
2022/10/18 11:24:23;;;;;;;39.53;11.38;;;;;;;22.36;76.10;101088.91;4975603;28;20034;-84
2022/10/18 11:26:52;;;;;;;;;;;;;;;22.25;76.28;101092.03;4958913;28;20095;-84
2022/10/18 11:29:33;;;;;;;78.03;16.40;;;;;;;22.16;77.20;101098.25;4958004;28;19917;-84